Time;durP1;ratioP1;P1;durP2;ratioP2;P2;SDS_P1;SDS_P2;PMS_P1;PMS_P2;Temp;Humidity;BMP_temperature;BMP_pressure;BME280_temperature;BME280_humidity;BME280_pressure;Samples;Min_cycle;Max_cycle;Signal;HPM_P1;HPM_P2
2022/10/22 00:00:41;;;;;;;55.03;37.70;;;256.00;2252.80;;;;;;5032057;28;20576;-81
2022/10/22 00:03:07;;;;;;;44.55;29.20;;;256.00;2252.80;;;;;;5031870;28;20025;-82
2022/10/22 00:05:33;;;;;;;39.00;30.08;;;256.10;2252.80;;;;;;5031870;28;20430;-82
2022/10/22 00:07:59;;;;;;;36.78;27.50;;;231.30;2252.80;;;;;;5032009;28;20038;-82
2022/10/22 00:10:25;;;;;;;35.67;25.98;;;231.30;2252.80;;;;;;5031713;28;20494;-80
2022/10/22 00:12:51;;;;;;;38.92;26.83;;;256.10;2252.80;;;;;;5032099;28;20379;-81
2022/10/22 00:15:17;;;;;;;54.33;34.53;;;231.10;2252.80;;;;;;5032020;28;20025;-82
2022/10/22 00:17:43;;;;;;;118.90;77.13;;;230.90;2252.80;;;;;;5031707;28;20532;-84
2022/10/22 00:20:12;;;;;;;70.28;46.40;;;230.70;2252.80;;;;;;5031988;28;20107;-83
2022/10/22 00:22:38;;;;;;;56.22;37.92;;;230.60;2252.80;;;;;;5031863;28;20164;-82
2022/10/22 00:25:05;;;;;;;51.30;33.65;;;230.80;2252.80;;;;;;5031736;28;20116;-81
2022/10/22 00:27:30;;;;;;;46.85;31.20;;;230.90;2252.80;;;;;;5035224;28;20034;-83
2022/10/22 00:29:56;;;;;;;53.30;36.60;;;231.00;2252.80;;;;;;5035613;28;20033;-78
2022/10/22 00:32:22;;;;;;;43.83;29.63;;;230.90;2252.80;;;;;;5035380;28;20017;-81
2022/10/22 00:34:48;;;;;;;38.22;26.58;;;230.80;2252.80;;;;;;5036600;28;20390;-80
2022/10/22 00:37:19;;;;;;;40.08;25.02;;;230.80;2252.80;;;;;;5035575;28;20061;-81
2022/10/22 00:39:45;;;;;;;38.83;25.95;;;230.80;2252.80;;;;;;5035062;28;20025;-82
2022/10/22 00:42:20;;;;;;;40.05;26.48;;;230.90;2252.80;;;;;;5035171;28;20017;-82
2022/10/22 00:45:15;;;;;;;53.17;31.98;;;230.80;2252.80;;;;;;5034884;28;20025;-83
2022/10/22 00:47:56;;;;;;;53.20;32.58;;;230.90;2252.80;;;;;;5035299;28;20030;-82
2022/10/22 00:50:27;;;;;;;41.90;25.25;;;231.00;2252.80;;;;;;5048496;28;20026;-84
2022/10/22 00:52:55;;;;;;;35.47;25.90;;;230.80;2252.80;;;;;;5034930;28;20130;-84
2022/10/22 00:55:22;;;;;;;63.25;38.90;;;230.90;2252.80;;;;;;5033991;28;20403;-81
2022/10/22 00:57:49;;;;;;;59.70;37.97;;;230.90;2252.80;;;;;;5035147;28;20033;-83
2022/10/22 01:00:15;;;;;;;57.58;36.13;;;231.00;2252.80;;;;;;5034593;28;20483;-79
2022/10/22 01:02:42;;;;;;;50.42;33.85;;;231.10;2252.80;;;;;;5034664;28;20035;-81
2022/10/22 01:05:08;;;;;;;46.85;31.52;;;231.20;2252.80;;;;;;5034735;28;20032;-81
2022/10/22 01:07:49;;;;;;;43.08;29.23;;;256.00;2252.80;;;;;;5034616;28;20033;-81
2022/10/22 01:10:31;;;;;;;42.97;29.83;;;231.30;2252.80;;;;;;5035060;28;20041;-80
2022/10/22 01:13:34;;;;;;;42.30;29.50;;;231.20;2252.80;;;;;;5034730;28;20071;-83
2022/10/22 01:16:24;;;;;;;49.60;29.77;;;231.10;2252.80;;;;;;5051511;28;20033;-82
2022/10/22 01:19:27;;;;;;;43.42;27.20;;;230.90;2252.80;;;;;;5035437;28;20115;-81
2022/10/22 01:22:06;;;;;;;38.20;26.13;;;231.00;2252.80;;;;;;5033963;28;20025;-81
2022/10/22 01:24:57;;;;;;;37.92;25.67;;;230.90;2252.80;;;;;;5033870;28;20042;-80
2022/10/22 01:27:44;;;;;;;48.47;27.63;;;231.00;2252.80;;;;;;5033879;28;20559;-82
2022/10/22 01:30:12;;;;;;;46.88;31.38;;;231.10;2252.80;;;;;;5035584;28;20075;-81
2022/10/22 01:32:51;;;;;;;50.75;30.35;;;231.00;2252.80;;;;;;5035410;28;20471;-80
2022/10/22 01:35:30;;;;;;;46.00;29.70;;;230.80;2252.80;;;;;;5035167;28;20064;-81
2022/10/22 01:38:00;;;;;;;46.83;29.90;;;230.70;2252.80;;;;;;5033510;28;20021;-81
2022/10/22 01:40:28;;;;;;;40.03;27.52;;;230.60;2252.80;;;;;;5034108;28;20017;-81
2022/10/22 01:43:06;;;;;;;39.60;26.60;;;230.70;2252.80;;;;;;5034086;28;20467;-81
2022/10/22 01:45:49;;;;;;;35.63;25.33;;;230.60;2252.80;;;;;;5034135;28;20017;-80
2022/10/22 01:48:28;;;;;;;;;;;230.70;2252.80;;;;;;5034110;28;20029;-81
2022/10/22 01:51:12;;;;;;;30.58;22.13;;;230.70;2252.80;;;;;;5034261;28;19963;-81
2022/10/22 01:54:13;;;;;;;32.85;20.65;;;230.60;2252.80;;;;;;5056560;28;20071;-81
2022/10/22 01:57:06;;;;;;;32.55;22.02;;;230.80;2252.80;;;;;;5032814;28;20086;-82
2022/10/22 01:59:38;;;;;;;35.63;21.33;;;230.90;2252.80;;;;;;5056959;28;20074;-82
2022/10/22 02:02:39;;;;;;;41.15;25.13;;;231.00;2252.80;;;;;;5057018;28;20381;-81
2022/10/22 02:05:20;;;;;;;55.55;36.30;;;231.20;2252.80;;;;;;5040432;28;20043;-81
2022/10/22 02:07:58;;;;;;;37.45;25.88;;;231.10;2252.80;;;;;;5057058;28;20039;-82
2022/10/22 02:10:26;;;;;;;39.97;24.60;;;230.90;2252.80;;;;;;5056788;28;20025;-81
2022/10/22 02:12:55;;;;;;;35.50;21.58;;;230.80;2252.80;;;;;;5056431;28;20390;-81
2022/10/22 02:15:27;;;;;;;29.42;21.05;;;230.80;2252.80;;;;;;5040208;28;20029;-80
2022/10/22 02:18:01;;;;;;;37.10;20.83;;;230.90;2252.80;;;;;;5055691;28;20016;-81
2022/10/22 02:20:46;;;;;;;30.80;20.98;;;231.00;2252.80;;;;;;5056625;28;20477;-82
2022/10/22 02:23:15;;;;;;;36.15;21.83;;;230.90;2252.80;;;;;;5056321;28;20523;-81
2022/10/22 02:25:43;;;;;;;31.58;21.67;;;230.90;2252.80;;;;;;5056492;28;20024;-82
2022/10/22 02:28:24;;;;;;;34.85;22.63;;;230.90;2252.80;;;;;;5052978;28;20108;-81
2022/10/22 02:31:06;;;;;;;34.25;22.98;;;231.10;2252.80;;;;;;5052825;28;20382;-81
2022/10/22 02:33:37;;;;;;;37.55;24.63;;;231.30;2252.80;;;;;;5053002;28;20391;-81
2022/10/22 02:36:05;;;;;;;33.80;23.92;;;231.30;2252.80;;;;;;5053021;28;20068;-82
2022/10/22 02:38:33;;;;;;;36.05;22.63;;;256.00;2252.80;;;;;;5052719;28;20031;-81
2022/10/22 02:40:59;;;;;;;37.85;23.77;;;231.30;2252.80;;;;;;5053188;28;20048;-81
2022/10/22 02:43:27;;;;;;;36.58;25.48;;;231.30;2252.80;;;;;;5052841;28;20477;-80
2022/10/22 02:45:53;;;;;;;43.65;25.02;;;231.30;2252.80;;;;;;5052955;28;20482;-80
2022/10/22 02:48:19;;;;;;;32.10;22.10;;;231.00;2252.80;;;;;;5053010;28;20087;-83
2022/10/22 02:50:45;;;;;;;32.55;23.27;;;256.10;2252.80;;;;;;5051727;28;20466;-83
2022/10/22 02:53:11;;;;;;;37.33;23.60;;;231.20;2252.80;;;;;;5052379;28;20048;-80
2022/10/22 02:55:40;;;;;;;32.28;22.13;;;231.30;2252.80;;;;;;5052880;28;20036;-81
2022/10/22 02:58:06;;;;;;;34.33;22.27;;;231.20;2252.80;;;;;;5052707;28;20500;-81
2022/10/22 03:00:35;;;;;;;33.25;20.83;;;231.00;2252.80;;;;;;5052881;28;20063;-81
2022/10/22 03:03:01;;;;;;;30.30;20.48;;;231.10;2252.80;;;;;;5052707;28;20032;-82
2022/10/22 03:05:27;;;;;;;31.73;21.75;;;231.30;2252.80;;;;;;5052466;28;20021;-79
2022/10/22 03:07:53;;;;;;;34.70;20.20;;;231.10;2252.80;;;;;;5052614;28;20425;-82
2022/10/22 03:10:22;;;;;;;30.38;19.70;;;231.00;2252.80;;;;;;5052494;28;20108;-81
2022/10/22 03:12:48;;;;;;;28.52;19.90;;;231.00;2252.80;;;;;;5052288;28;20484;-81
2022/10/22 03:15:14;;;;;;;30.33;21.20;;;231.10;2252.80;;;;;;5052576;28;20029;-79
2022/10/22 03:17:47;;;;;;;34.85;22.60;;;230.70;2252.80;;;;;;5053571;28;20025;-82
2022/10/22 03:20:13;;;;;;;32.53;23.58;;;230.60;2252.80;;;;;;5052019;28;20549;-81
2022/10/22 03:22:43;;;;;;;34.80;23.05;;;230.40;2252.80;;;;;;5052143;28;20079;-83
2022/10/22 03:25:15;;;;;;;30.88;22.13;;;230.60;2252.80;;;;;;5051568;28;20029;-82
2022/10/22 03:27:42;;;;;;;39.03;25.48;;;230.70;2252.80;;;;;;5051910;28;20382;-82
2022/10/22 03:30:09;;;;;;;42.28;26.08;;;230.90;2252.80;;;;;;5052107;28;20025;-82
2022/10/22 03:32:35;;;;;;;32.92;22.58;;;231.10;2252.80;;;;;;5051773;28;20031;-81
2022/10/22 03:35:10;;;;;;;37.20;22.50;;;231.10;2252.80;;;;;;5052296;28;20021;-83
2022/10/22 03:37:37;;;;;;;40.83;21.88;;;230.90;2252.80;;;;;;5052323;28;20021;-81
2022/10/22 03:40:07;;;;;;;29.08;20.38;;;230.70;2252.80;;;;;;5052011;28;20026;-83
2022/10/22 03:42:33;;;;;;;33.03;20.60;;;230.50;2252.80;;;;;;5052134;28;20029;-84
2022/10/22 03:44:59;;;;;;;37.53;21.27;;;230.50;2252.80;;;;;;5051902;28;20059;-84
2022/10/22 03:47:26;;;;;;;32.72;22.70;;;230.70;2252.80;;;;;;5068283;28;20128;-82
2022/10/22 03:49:53;;;;;;;38.55;22.63;;;230.70;2252.80;;;;;;5051968;28;20022;-82
2022/10/22 03:52:19;;;;;;;33.95;21.90;;;230.60;2252.80;;;;;;5051977;28;20055;-83
2022/10/22 03:54:45;;;;;;;30.10;21.60;;;230.60;2252.80;;;;;;5051846;28;20037;-81
2022/10/22 03:57:11;;;;;;;33.03;22.38;;;230.50;2252.80;;;;;;5052202;28;20025;-82
2022/10/22 03:59:40;;;;;;;32.30;20.45;;;230.60;2252.80;;;;;;5051983;28;20089;-81
2022/10/22 04:02:07;;;;;;;28.27;20.23;;;230.70;2252.80;;;;;;5071484;28;20025;-84
2022/10/22 04:04:35;;;;;;;32.28;21.33;;;230.50;2252.80;;;;;;5056997;28;20039;-82
2022/10/22 04:07:02;;;;;;;33.13;20.30;;;230.40;2252.80;;;;;;5055748;28;20393;-82
2022/10/22 04:09:32;;;;;;;32.50;20.85;;;230.60;2252.80;;;;;;5055457;28;20071;-82
2022/10/22 04:11:58;;;;;;;31.38;20.65;;;230.70;2252.80;;;;;;5055795;28;20025;-82
2022/10/22 04:14:24;;;;;;;34.80;21.52;;;230.70;2252.80;;;;;;5055347;28;20028;-78
2022/10/22 04:16:50;;;;;;;33.20;20.90;;;230.60;2252.80;;;;;;5055614;28;20029;-81
2022/10/22 04:19:17;;;;;;;38.58;21.23;;;230.70;2252.80;;;;;;5055593;28;20083;-82
2022/10/22 04:21:43;;;;;;;33.90;21.30;;;230.80;2252.80;;;;;;5055518;28;20065;-82
2022/10/22 04:24:09;;;;;;;32.08;20.73;;;230.60;2252.80;;;;;;5055784;28;20025;-81
2022/10/22 04:26:38;;;;;;;34.53;20.58;;;230.60;2252.80;;;;;;5055672;28;20045;-82
2022/10/22 04:29:06;;;;;;;31.02;22.25;;;230.90;2252.80;;;;;;5055306;28;20462;-82
2022/10/22 04:31:32;;;;;;;33.65;20.25;;;230.90;2252.80;;;;;;5055391;28;20025;-83
2022/10/22 04:33:59;;;;;;;38.67;23.48;;;230.90;2252.80;;;;;;5055317;28;20056;-80
2022/10/22 04:36:27;;;;;;;35.15;23.58;;;230.90;2252.80;;;;;;5055322;28;20033;-84
2022/10/22 04:39:06;;;;;;;32.92;20.63;;;230.70;2252.80;;;;;;5055544;28;20051;-81
2022/10/22 04:41:37;;;;;;;34.17;21.65;;;205.70;2252.80;;;;;;5039233;28;20029;-83
2022/10/22 04:44:04;;;;;;;35.33;21.85;;;230.60;2252.80;;;;;;5054861;28;20025;-83
2022/10/22 04:46:33;;;;;;;38.47;22.13;;;230.70;2252.80;;;;;;5055124;28;20051;-82
2022/10/22 04:48:59;;;;;;;29.48;21.70;;;230.70;2252.80;;;;;;5054975;28;20036;-82
2022/10/22 04:51:26;;;;;;;37.63;24.48;;;230.70;2252.80;;;;;;5056605;28;20032;-81
2022/10/22 04:53:53;;;;;;;38.75;25.75;;;230.80;2252.80;;;;;;5058291;28;20031;-83
2022/10/22 04:56:24;;;;;;;38.25;24.92;;;230.80;2252.80;;;;;;5057239;28;20032;-80
2022/10/22 04:58:53;;;;;;;38.90;23.70;;;230.70;2252.80;;;;;;5058647;28;20035;-82
2022/10/22 05:01:25;;;;;;;34.55;23.45;;;230.60;2252.80;;;;;;5058266;28;20477;-79
2022/10/22 05:03:54;;;;;;;36.97;24.77;;;230.70;2252.80;;;;;;5057912;28;20079;-81
2022/10/22 05:06:21;;;;;;;36.38;25.05;;;230.60;2252.80;;;;;;5058057;28;20032;-83
2022/10/22 05:08:52;;;;;;;34.63;25.27;;;230.70;2252.80;;;;;;5058307;28;20032;-82
2022/10/22 05:11:23;;;;;;;35.20;24.48;;;230.60;2252.80;;;;;;5058296;28;20397;-80
2022/10/22 05:13:50;;;;;;;43.97;25.63;;;230.70;2252.80;;;;;;5058678;28;20025;-81
2022/10/22 05:16:15;;;;;;;40.45;26.05;;;230.90;2252.80;;;;;;5063433;28;20477;-81
2022/10/22 05:18:43;;;;;;;43.40;26.58;;;230.70;2252.80;;;;;;5062990;28;20070;-81
2022/10/22 05:21:15;;;;;;;38.53;26.45;;;230.80;2252.80;;;;;;5060635;28;20033;-80
2022/10/22 05:23:42;;;;;;;40.67;26.90;;;230.90;2252.80;;;;;;5057877;28;20056;-80
2022/10/22 05:26:10;;;;;;;41.97;26.92;;;231.00;2252.80;;;;;;5056507;28;20277;-79
2022/10/22 05:28:37;;;;;;;42.40;26.83;;;231.00;2252.80;;;;;;5057864;28;20025;-78
2022/10/22 05:31:04;;;;;;;38.97;26.38;;;230.90;2252.80;;;;;;5057716;28;20033;-79
2022/10/22 05:33:32;;;;;;;43.85;26.52;;;230.70;2252.80;;;;;;5037604;28;20025;-77
2022/10/22 05:36:01;;;;;;;46.78;28.20;;;230.80;2252.80;;;;;;5037603;28;20029;-79
2022/10/22 05:38:31;;;;;;;47.67;28.17;;;230.70;2252.80;;;;;;5037362;28;20029;-79
2022/10/22 05:41:02;;;;;;;47.88;31.30;;;230.80;2252.80;;;;;;5037858;28;20047;-79
2022/10/22 05:43:29;;;;;;;46.85;28.15;;;230.90;2252.80;;;;;;5038422;28;20052;-81
2022/10/22 05:45:55;;;;;;;50.13;30.63;;;230.90;2252.80;;;;;;5037875;28;20032;-79
2022/10/22 05:48:22;;;;;;;50.25;31.15;;;231.00;2252.80;;;;;;5038318;28;20115;-79
2022/10/22 05:50:49;;;;;;;51.05;31.80;;;230.90;2252.80;;;;;;5037251;28;20033;-80
2022/10/22 05:53:18;;;;;;;53.33;29.98;;;231.00;2252.80;;;;;;5017862;28;20061;-80
2022/10/22 05:55:45;;;;;;;45.50;29.88;;;231.10;2252.80;;;;;;5014521;28;20026;-80
2022/10/22 05:58:23;;;;;;;47.53;30.25;;;231.10;2252.80;;;;;;5014952;28;20030;-79
2022/10/22 06:00:49;;;;;;;39.45;26.98;;;231.00;2252.80;;;;;;5014716;28;20022;-80
2022/10/22 06:03:15;;;;;;;41.15;26.45;;;231.10;2252.80;;;;;;5014458;28;20173;-81
2022/10/22 06:05:41;;;;;;;39.78;27.67;;;231.10;2252.80;;;;;;5014176;28;20018;-81
2022/10/22 06:08:11;;;;;;;49.05;32.38;;;231.30;2252.80;;;;;;5013798;28;20076;-80
2022/10/22 06:10:41;;;;;;;50.90;32.28;;;231.30;2252.80;;;;;;5014058;28;20022;-80
2022/10/22 06:13:07;;;;;;;47.55;31.48;;;256.00;2252.80;;;;;;5012586;28;20117;-81
2022/10/22 06:15:33;;;;;;;43.78;31.55;;;256.00;2252.80;;;;;;5013665;28;20112;-78
2022/10/22 06:17:59;;;;;;;41.65;29.60;;;256.20;2252.80;;;;;;5012675;28;20026;-81
2022/10/22 06:20:25;;;;;;;43.80;29.00;;;256.30;2252.80;;;;;;5012639;28;20033;-82
2022/10/22 06:22:51;;;;;;;51.33;31.38;;;256.40;2252.80;;;;;;5013631;28;20029;-79
2022/10/22 06:25:17;;;;;;;52.00;33.38;;;256.50;2252.80;;;;;;5012811;28;20026;-81
2022/10/22 06:27:43;;;;;;;62.33;38.80;;;256.60;2252.80;;;;;;5012884;28;20033;-81
2022/10/22 06:30:09;;;;;;;65.38;39.17;;;256.80;2252.80;;;;;;5014676;28;20022;-78
2022/10/22 06:32:35;;;;;;;60.30;39.53;;;281.60;2278.40;;;;;;5013596;28;20483;-78
2022/10/22 06:35:01;;;;;;;60.15;40.53;;;256.50;2252.80;;;;;;5014253;28;20033;-81
2022/10/22 06:37:27;;;;;;;68.75;42.92;;;256.60;2252.80;;;;;;5013511;28;20030;-82
2022/10/22 06:39:53;;;;;;;75.15;46.08;;;256.80;2252.80;;;;;;4997139;28;20133;-79
2022/10/22 06:42:19;;;;;;;97.35;57.45;;;256.90;2252.80;;;;;;5011465;28;20113;-82
2022/10/22 06:44:45;;;;;;;88.25;54.95;;;256.90;2252.80;;;;;;5013383;28;20084;-81
2022/10/22 06:47:11;;;;;;;90.15;61.72;;;256.80;2252.80;;;;;;5012109;28;20458;-80
2022/10/22 06:49:37;;;;;;;64.45;43.55;;;256.90;2252.80;;;;;;5012289;28;20033;-80
2022/10/22 06:52:03;;;;;;;46.88;31.45;;;256.90;2252.80;;;;;;5013029;28;20132;-81
2022/10/22 06:54:34;;;;;;;46.20;32.42;;;256.80;2252.80;;;;;;5012227;28;20041;-80
2022/10/22 06:57:00;;;;;;;50.83;31.13;;;256.90;2252.80;;;;;;5012924;28;20125;-81
2022/10/22 06:59:27;;;;;;;48.20;30.98;;;281.70;2278.40;;;;;;5013149;28;20109;-82
2022/10/22 07:01:56;;;;;;;47.33;32.42;;;281.70;2278.40;;;;;;5012969;28;20076;-81
2022/10/22 07:04:22;;;;;;;95.65;39.00;;;281.80;2278.40;;;;;;5012470;28;20123;-81
2022/10/22 07:06:48;;;;;;;89.90;38.38;;;281.70;2278.40;;;;;;5012645;28;20472;-78
2022/10/22 07:09:14;;;;;;;47.55;33.22;;;281.80;2278.40;;;;;;5012931;28;20068;-77
2022/10/22 07:11:42;;;;;;;54.97;35.28;;;281.90;2278.40;;;;;;5013451;28;20030;-80
2022/10/22 07:14:09;;;;;;;44.72;30.40;;;282.00;2278.40;;;;;;5012783;28;20026;-77
2022/10/22 07:16:35;;;;;;;45.22;30.30;;;282.10;2278.40;;;;;;5012496;28;20219;-77
2022/10/22 07:19:02;;;;;;;87.25;60.60;;;282.10;2278.40;;;;;;5012720;28;20458;-76
2022/10/22 07:21:29;;;;;;;92.32;68.07;;;282.20;2278.40;;;;;;5012637;28;20075;-75
2022/10/22 07:23:55;;;;;;;105.10;72.95;;;;;;;;;;5012363;28;20084;-77
2022/10/22 07:26:24;;;;;;;87.07;59.40;;;282.40;2278.40;;;;;;5012504;28;20049;-76
2022/10/22 07:28:50;;;;;;;80.30;56.65;;;282.50;2278.40;;;;;;5014122;28;20025;-78
2022/10/22 07:31:16;;;;;;;72.28;51.38;;;307.20;2304.00;;;;;;5013548;28;20083;-76
2022/10/22 07:33:43;;;;;;;74.05;50.40;;;307.20;2304.00;;;;;;5012518;28;20112;-78
2022/10/22 07:36:16;;;;;;;75.28;54.47;;;307.30;2304.00;;;;;;5013245;28;20026;-74
2022/10/22 07:38:45;;;;;;;73.20;56.08;;;307.40;2304.00;;;;;;5013543;28;20029;-76
2022/10/22 07:41:12;;;;;;;77.57;54.35;;;307.50;2304.00;;;;;;5013577;28;20030;-79
2022/10/22 07:43:38;;;;;;;63.13;46.55;;;307.60;2304.00;;;;;;5012436;28;20088;-79
2022/10/22 07:46:04;;;;;;;61.13;39.70;;;307.90;2304.00;;;;;;5012108;28;20026;-79
2022/10/22 07:48:30;;;;;;;81.32;41.05;;;308.00;2304.00;;;;;;5012649;28;20076;-79
2022/10/22 07:50:57;;;;;;;68.90;39.85;;;308.10;2304.00;;;;;;5012443;28;20414;-76
2022/10/22 07:53:23;;;;;;;53.90;35.95;;;332.90;2329.60;;;;;;5047713;28;20037;-77
2022/10/22 07:55:50;;;;;;;55.13;37.22;;;332.90;2329.60;;;;;;5035352;28;20039;-77
2022/10/22 07:58:19;;;;;;;62.80;41.58;;;333.00;2329.60;;;;;;5035264;28;20067;-78
2022/10/22 08:00:46;;;;;;;51.72;34.00;;;333.00;2329.60;;;;;;5034989;28;20036;-77
2022/10/22 08:03:14;;;;;;;57.70;35.80;;;333.20;2329.60;;;;;;5035309;28;20021;-78
2022/10/22 08:05:42;;;;;;;42.03;30.17;;;333.20;2329.60;;;;;;5034970;28;20025;-76
2022/10/22 08:08:09;;;;;;;40.05;26.38;;;333.30;2329.60;;;;;;5035271;28;20033;-79
2022/10/22 08:10:36;;;;;;;36.97;24.35;;;333.40;2329.60;;;;;;5053412;28;20033;-75
2022/10/22 08:13:02;;;;;;;34.17;25.48;;;333.50;2329.60;;;;;;5034935;28;20021;-77
2022/10/22 08:15:28;;;;;;;37.65;26.23;;;333.40;2329.60;;;;;;5035134;28;20025;-76
2022/10/22 08:17:54;;;;;;;38.53;26.10;;;333.40;2329.60;;;;;;5035267;28;20033;-76
2022/10/22 08:20:20;;;;;;;38.08;26.52;;;333.40;2329.60;;;;;;5051850;28;20375;-78
2022/10/22 08:22:45;;;;;;;32.08;24.85;;;333.40;2329.60;;;;;;5035106;28;20029;-76
2022/10/22 08:25:11;;;;;;;29.08;21.60;;;333.50;2329.60;;;;;;5035183;28;20099;-75
2022/10/22 08:27:37;;;;;;;26.83;17.10;;;333.50;2329.60;;;;;;5034803;28;20445;-77
2022/10/22 08:30:04;;;;;;;25.60;16.40;;;333.40;2329.60;;;;;;5034782;28;20029;-76
2022/10/22 08:32:30;;;;;;;21.90;15.75;;;333.70;2329.60;;;;;;5035055;28;20028;-76
2022/10/22 08:34:56;;;;;;;22.02;15.57;;;358.50;2329.60;;;;;;5034661;28;20029;-75
2022/10/22 08:37:22;;;;;;;25.95;17.95;;;358.50;2329.60;;;;;;5052918;28;20025;-76
2022/10/22 08:39:48;;;;;;;21.70;15.27;;;;;;;;;;5035018;28;20135;-76
2022/10/22 08:42:20;;;;;;;23.42;17.63;;;358.80;2329.60;;;;;;5034742;28;20466;-76
2022/10/22 08:45:18;;;;;;;31.90;22.45;;;358.90;2329.60;;;;;;5034970;28;20059;-75
2022/10/22 08:47:58;;;;;;;28.15;19.90;;;359.00;2329.60;;;;;;5030879;28;20095;-77
2022/10/22 08:50:34;;;;;;;28.52;20.77;;;359.20;2329.60;;;;;;5056445;28;20408;-78
2022/10/22 08:53:11;;;;;;;33.92;19.08;;;359.20;2329.60;;;;;;5055904;28;20132;-75
2022/10/22 08:55:37;;;;;;;27.63;19.88;;;359.30;2329.60;;;;;;5038093;28;20033;-75
2022/10/22 08:58:24;;;;;;;27.52;20.58;;;384.00;2329.60;;;;;;5038381;28;20466;-74
2022/10/22 09:00:53;;;;;;;29.05;19.60;;;384.10;2329.60;;;;;;5056449;28;20021;-77
2022/10/22 09:03:25;;;;;;;29.35;19.13;;;384.10;2329.60;;;;;;5038013;28;20099;-75
2022/10/22 09:06:13;;;;;;;23.70;19.38;;;;;;;;;;5037824;28;20029;-76
2022/10/22 09:08:41;;;;;;;23.73;16.42;;;384.40;2329.60;;;;;;5037795;28;20036;-74
2022/10/22 09:11:17;;;;;;;23.48;17.60;;;384.60;2329.60;;;;;;5056190;28;20025;-74
2022/10/22 09:13:44;;;;;;;24.08;19.02;;;384.70;2329.60;;;;;;5038116;28;20068;-74
2022/10/22 09:16:15;;;;;;;27.77;20.00;;;384.80;2329.60;;;;;;5037702;28;20120;-76
2022/10/22 09:18:44;;;;;;;31.48;20.08;;;409.70;2355.20;;;;;;5055865;28;20021;-75
2022/10/22 09:21:36;;;;;;;24.35;19.60;;;409.70;2355.20;;;;;;5047723;28;20108;-74
2022/10/22 09:24:03;;;;;;;23.48;18.00;;;409.70;2355.20;;;;;;5034389;28;20012;-74
2022/10/22 09:26:33;;;;;;;26.20;19.20;;;409.80;2355.20;;;;;;5057775;28;20037;-75
2022/10/22 09:28:59;;;;;;;25.15;17.10;;;409.90;2355.20;;;;;;5028990;28;20022;-74
2022/10/22 09:31:29;;;;;;;29.58;18.98;;;410.20;2355.20;;;;;;5018066;28;20032;-75
2022/10/22 09:33:56;;;;;;;26.10;18.70;;;;;;;;;;5018313;28;20032;-76
2022/10/22 09:36:22;;;;;;;25.55;16.83;;;410.20;2355.20;;;;;;5035617;28;20032;-75
2022/10/22 09:38:52;;;;;;;24.42;16.35;;;410.30;2355.20;;;;;;5034437;28;20026;-74
2022/10/22 09:41:22;;;;;;;21.70;15.63;;;410.50;2355.20;;;;;;5035517;28;20029;-74
2022/10/22 09:43:48;;;;;;;23.35;17.92;;;435.30;2355.20;;;;;;5016982;28;20032;-74
2022/10/22 09:46:21;;;;;;;32.97;20.05;;;435.60;2355.20;;;;;;5034868;28;20466;-74
2022/10/22 09:48:57;;;;;;;35.03;22.25;;;435.50;2355.20;;;;;;5035401;28;20044;-74
2022/10/22 09:51:48;;;;;;;28.58;20.13;;;435.70;2355.20;;;;;;5033427;28;20096;-76
2022/10/22 09:54:38;;;;;;;20.17;14.32;;;435.80;2355.20;;;;;;5017400;28;20116;-74
2022/10/22 09:57:21;;;;;;;21.45;13.73;;;435.70;2355.20;;;;;;5013890;28;20042;-75
2022/10/22 09:59:49;;;;;;;27.73;17.55;;;435.90;2355.20;;;;;;5034629;28;20071;-74
2022/10/22 10:02:19;;;;;;;48.58;30.75;;;436.10;2355.20;;;;;;5017324;28;20391;-74
2022/10/22 10:04:54;;;;;;;30.85;19.92;;;460.80;2380.80;;;;;;5034349;28;20453;-74
2022/10/22 10:07:21;;;;;;;43.78;26.90;;;;;;;;;;5017235;28;20034;-74
2022/10/22 10:09:48;;;;;;;41.72;31.65;;;;;;;;;;5033672;28;20111;-74
2022/10/22 10:12:33;;;;;;;94.97;21.45;;;;;;;;;;5033338;28;20026;-75
2022/10/22 10:15:19;;;;;;;33.30;14.77;;;461.30;2380.80;;;;;;5035215;28;20022;-76
2022/10/22 10:18:09;;;;;;;22.55;16.67;;;;;;;;;;5017129;28;20029;-74
2022/10/22 10:20:56;;;;;;;17.33;11.20;;;461.40;2380.80;;;;;;5033202;28;20025;-75
2022/10/22 10:23:49;;;;;;;15.65;11.70;;;461.70;2380.80;;;;;;5034392;28;20383;-75
2022/10/22 10:26:22;;;;;;;19.58;14.80;;;461.70;2380.80;;;;;;5014065;28;20033;-76
2022/10/22 10:29:14;;;;;;;22.42;14.30;;;486.50;2380.80;;;;;;5016931;28;20033;-77
2022/10/22 10:31:46;;;;;;;13.52;10.88;;;;;;;;;;5033344;28;20463;-77
2022/10/22 10:34:27;;;;;;;16.92;11.43;;;;;;;;;;5032854;28;20475;-78
2022/10/22 10:36:55;;;;;;;21.85;16.15;;;487.10;2380.80;;;;;;5033048;28;20029;-75
2022/10/22 10:39:29;;;;;;;23.35;14.60;;;;;;;;;;5034351;28;20026;-76
2022/10/22 10:42:01;;;;;;;24.13;12.30;;;;;;;;;;5034481;28;20087;-75
2022/10/22 10:44:36;;;;;;;20.65;14.50;;;;;;;;;;5033286;28;20022;-75
2022/10/22 10:47:27;;;;;;;22.13;14.10;;;512.20;2380.80;;;;;;5034154;28;20609;-76
2022/10/22 10:50:01;;;;;;;15.63;11.18;;;512.20;2380.80;;;;;;5032964;28;20124;-76
2022/10/22 10:52:41;;;;;;;16.95;11.00;;;512.20;2380.80;;;;;;5003389;28;20050;-75
2022/10/22 10:55:16;;;;;;;10.23;7.53;;;;;;;;;;4993603;28;20031;-75
2022/10/22 10:58:01;;;;;;;13.88;8.10;;;;;;;;;;5009412;28;20383;-75
2022/10/22 11:00:33;;;;;;;11.57;8.18;;;512.80;2380.80;;;;;;5013975;28;20460;-74
2022/10/22 11:03:37;;;;;;;14.60;8.85;;;512.90;2380.80;;;;;;5013748;28;20379;-80
2022/10/22 11:06:06;;;;;;;17.92;10.50;;;;;;;;;;5013462;28;20032;-73
2022/10/22 11:08:38;;;;;;;17.00;10.40;;;;;;;;;;5012894;28;20094;-78
2022/10/22 11:11:21;;;;;;;11.43;7.85;;;538.00;2406.40;;;;;;5011809;28;20022;-75
2022/10/22 11:14:21;;;;;;;13.93;8.15;;;538.20;2380.80;;;;;;5014314;28;20068;-75
2022/10/22 11:16:53;;;;;;;13.65;7.65;;;;;;;;;;5014225;28;20064;-75
2022/10/22 11:19:33;;;;;;;;;;;563.50;2329.60;;;;;;5012850;28;20028;-76
2022/10/22 11:22:05;;;;;;;9.10;6.68;;;563.50;2329.60;;;;;;5003049;28;19971;-77
2022/10/22 11:24:44;;;;;;;10.65;7.18;;;563.60;2304.00;;;;;;5018316;28;20388;-78
2022/10/22 11:27:30;;;;;;;11.40;6.85;;;;;;;;;;5021764;28;20387;-77
2022/10/22 11:30:10;;;;;;;9.10;7.20;;;564.00;2252.80;;;;;;5023479;28;20026;-78
2022/10/22 11:33:02;;;;;;;15.88;7.57;;;564.10;2278.40;;;;;;5000901;28;20033;-79
2022/10/22 11:35:38;;;;;;;18.37;7.73;;;588.90;2227.20;;;;;;5009097;28;20487;-76
2022/10/22 11:38:15;;;;;;;11.85;8.27;;;589.30;2201.60;;;;;;5010798;28;20029;-81
2022/10/22 11:41:00;;;;;;;12.00;7.43;;;;;;;;;;5010256;28;20049;-81
2022/10/22 11:44:08;;;;;;;12.45;7.97;;;614.40;2150.40;;;;;;5009503;28;20029;-79
2022/10/22 11:47:08;;;;;;;13.63;9.13;;;614.70;2124.80;;;;;;4992535;28;20137;-78
2022/10/22 11:49:43;;;;;;;12.18;7.45;;;;;;;;;;4994282;28;20030;-76
2022/10/22 11:52:40;;;;;;;12.85;8.40;;;615.00;2124.80;;;;;;5026401;28;20042;-77
2022/10/22 11:55:31;;;;;;;13.82;9.10;;;615.20;2073.60;;;;;;5036024;28;20041;-77
2022/10/22 11:58:00;;;;;;;10.48;8.13;;;615.10;2048.00;;;;;;5032620;28;20029;-77
2022/10/22 12:00:39;;;;;;;12.43;9.55;;;640.00;2022.40;;;;;;5034996;28;20040;-77
2022/10/22 12:03:23;;;;;;;18.08;10.07;;;640.20;1996.80;;;;;;5052343;28;20490;-77
2022/10/22 12:06:10;;;;;;;12.23;7.70;;;640.20;1920.00;;;;;;5034840;28;20025;-77
2022/10/22 12:08:43;;;;;;;12.43;7.05;;;640.30;1894.40;;;;;;5034930;28;20040;-78
2022/10/22 12:11:09;;;;;;;10.73;7.60;;;640.70;1920.00;;;;;;5035267;28;20359;-77
2022/10/22 12:13:57;;;;;;;12.82;10.38;;;;;;;;;;5035227;28;20025;-78
2022/10/22 12:16:24;;;;;;;14.88;7.70;;;;;;;;;;5051754;28;20470;-78
2022/10/22 12:19:01;;;;;;;9.57;6.85;;;640.70;1894.40;;;;;;5051795;28;20359;-77
2022/10/22 12:21:27;;;;;;;18.25;8.13;;;640.50;1894.40;;;;;;5035118;28;20021;-78
2022/10/22 12:23:53;;;;;;;11.70;7.13;;;640.60;1894.40;;;;;;5039086;28;20351;-77
2022/10/22 12:26:24;;;;;;;9.68;6.80;;;640.90;1868.80;;;;;;5056819;28;20021;-76
2022/10/22 12:28:55;;;;;;;13.00;7.05;;;665.60;1868.80;;;;;;5056578;28;20529;-77
2022/10/22 12:31:21;;;;;;;11.63;6.65;;;665.80;1945.60;;;;;;5056590;28;20021;-76
2022/10/22 12:33:48;;;;;;;13.23;8.20;;;640.90;1817.60;;;;;;5038794;28;20112;-77